Time;durP1;ratioP1;P1;durP2;ratioP2;P2;SDS_P1;SDS_P2;PMS_P1;PMS_P2;Temp;Humidity;BMP_temperature;BMP_pressure;BME280_temperature;BME280_humidity;BME280_pressure;Samples;Min_cycle;Max_cycle;Signal;HPM_P1;HPM_P2
2022/01/09 00:01:01;;;;;;;5.85;2.30;;;;;;;3.93;89.92;98500.94;5074127;28;20041;-65
2022/01/09 00:03:28;;;;;;;6.28;2.47;;;;;;;3.98;89.85;98498.63;5075255;28;20059;-65
2022/01/09 00:05:55;;;;;;;6.43;2.20;;;;;;;3.96;90.32;98489.25;5084952;28;20516;-65
2022/01/09 00:08:22;;;;;;;5.93;2.38;;;;;;;4.01;90.41;98486.97;5093163;28;20570;-64
2022/01/09 00:10:50;;;;;;;6.35;2.40;;;;;;;3.97;90.34;98485.66;5092859;28;20048;-65
2022/01/09 00:13:17;;;;;;;6.43;2.50;;;;;;;4.07;89.77;98481.03;5093032;28;20028;-64
2022/01/09 00:15:44;;;;;;;7.05;2.28;;;;;;;4.12;89.75;98476.13;5094523;28;20082;-64
2022/01/09 00:18:11;;;;;;;6.68;2.58;;;;;;;4.07;89.40;98470.53;5094009;28;20046;-65
2022/01/09 00:20:38;;;;;;;5.15;2.25;;;;;;;4.12;90.10;98472.69;5093453;28;20036;-64
2022/01/09 00:23:05;;;;;;;7.13;2.50;;;;;;;4.10;89.78;98469.41;5077320;28;20064;-65
2022/01/09 00:25:31;;;;;;;6.80;2.75;;;;;;;4.04;90.18;98466.47;5074141;28;20044;-65
2022/01/09 00:27:58;;;;;;;7.47;2.33;;;;;;;4.17;89.46;98467.75;5075252;28;20523;-65
2022/01/09 00:30:26;;;;;;;6.88;2.65;;;;;;;4.09;90.10;98465.94;5074965;28;20040;-65
2022/01/09 00:32:53;;;;;;;6.78;2.33;;;;;;;4.15;89.77;98461.84;5072779;28;20400;-64
2022/01/09 00:35:21;;;;;;;7.80;2.38;;;;;;;4.05;89.90;98467.28;5077363;28;20048;-65
2022/01/09 00:37:50;;;;;;;6.72;2.70;;;;;;;4.11;90.20;98461.38;5076800;28;20044;-65
2022/01/09 00:40:18;;;;;;;7.15;2.78;;;;;;;4.04;90.07;98460.41;5075379;28;20433;-65
2022/01/09 00:42:44;;;;;;;5.35;2.40;;;;;;;3.89;90.20;98464.69;5074738;28;20043;-65
2022/01/09 00:45:13;;;;;;;7.30;2.35;;;;;;;4.02;90.43;98449.22;5073309;28;20044;-65
2022/01/09 00:47:41;;;;;;;5.63;2.13;;;;;;;4.02;90.45;98452.69;5072962;28;20070;-65
2022/01/09 00:50:09;;;;;;;5.85;2.40;;;;;;;4.03;91.02;98456.94;5069772;28;20109;-65
2022/01/09 00:52:36;;;;;;;8.10;2.45;;;;;;;4.04;90.89;98449.91;5067106;28;20039;-65
2022/01/09 00:55:05;;;;;;;6.05;2.47;;;;;;;3.97;90.53;98454.19;5072839;28;20041;-65
2022/01/09 00:57:32;;;;;;;6.15;2.47;;;;;;;4.02;90.52;98455.31;5074429;28;20045;-65
2022/01/09 00:59:59;;;;;;;5.15;2.25;;;;;;;4.15;90.44;98456.59;5074382;28;20048;-65
2022/01/09 01:02:26;;;;;;;6.68;2.35;;;;;;;4.03;90.58;98449.06;5073860;28;20527;-64
2022/01/09 01:04:53;;;;;;;7.00;2.60;;;;;;;4.04;90.83;98455.97;5088112;28;20531;-65
2022/01/09 01:07:20;;;;;;;4.80;2.05;;;;;;;4.17;90.10;98449.38;5093695;28;20051;-65
2022/01/09 01:09:47;;;;;;;6.03;2.00;;;;;;;4.13;90.13;98448.91;5093517;28;20097;-65
2022/01/09 01:12:13;;;;;;;6.72;2.45;;;;;;;4.26;89.34;98453.63;5092102;28;20086;-64
2022/01/09 01:14:40;;;;;;;6.22;2.17;;;;;;;4.16;90.66;98447.72;5094969;28;20043;-64
2022/01/09 01:17:09;;;;;;;7.32;2.47;;;;;;;4.11;90.66;98450.03;5093931;28;20040;-64
2022/01/09 01:19:35;;;;;;;5.63;2.10;;;;;;;4.06;90.62;98445.31;5091502;28;20055;-65
2022/01/09 01:22:13;;;;;;;4.45;2.10;;;;;;;3.99;91.30;98444.34;5092244;28;20036;-65
2022/01/09 01:24:41;;;;;;;5.95;2.05;;;;;;;4.08;91.34;98453.81;5085940;28;20062;-65
2022/01/09 01:27:08;;;;;;;4.75;1.83;;;;;;;4.19;91.45;98445.59;5073434;28;20036;-65
2022/01/09 01:29:37;;;;;;;4.60;2.00;;;;;;;4.25;91.04;98451.16;5079087;28;20044;-65
2022/01/09 01:32:05;;;;;;;4.57;1.92;;;;;;;4.36;90.32;98451.59;5070874;28;20064;-65
2022/01/09 01:34:33;;;;;;;5.35;2.00;;;;;;;4.22;90.63;98455.75;5072843;28;20044;-65
2022/01/09 01:37:00;;;;;;;6.85;1.70;;;;;;;4.32;90.68;98460.81;5053918;28;20385;-65
2022/01/09 01:39:28;;;;;;;4.05;1.50;;;;;;;4.40;91.24;98467.81;5055720;28;20053;-64
2022/01/09 01:41:55;;;;;;;4.30;1.60;;;;;;;4.49;90.48;98469.41;5081152;28;20101;-63
2022/01/09 01:44:22;;;;;;;4.97;1.70;;;;;;;4.42;90.40;98471.94;5092463;28;20109;-64
2022/01/09 01:46:48;;;;;;;8.43;1.67;;;;;;;4.50;90.38;98478.94;5093375;28;20137;-64
2022/01/09 01:49:15;;;;;;;4.15;1.58;;;;;;;4.45;90.70;98485.69;5093600;28;20093;-64
2022/01/09 01:51:43;;;;;;;5.75;1.92;;;;;;;4.45;91.43;98490.94;5093565;28;20119;-64
2022/01/09 01:54:11;;;;;;;3.47;1.58;;;;;;;4.41;91.40;98493.91;5086294;28;20040;-64
2022/01/09 01:56:38;;;;;;;5.93;1.67;;;;;;;4.52;90.90;98505.03;5082696;28;20037;-63
2022/01/09 01:59:06;;;;;;;7.85;2.53;;;;;;;4.52;90.82;98515.53;5073182;28;20098;-64
2022/01/09 02:01:36;;;;;;;6.25;2.15;;;;;;;4.61;90.83;98512.72;5072073;28;20083;-64
2022/01/09 02:04:04;;;;;;;4.78;1.90;;;;;;;4.61;91.49;98510.09;5071882;28;20052;-64
2022/01/09 02:06:34;;;;;;;4.85;2.00;;;;;;;4.72;90.94;98531.72;5072986;28;20048;-64
2022/01/09 02:09:03;;;;;;;6.00;2.35;;;;;;;4.90;90.54;98539.38;5077963;28;20040;-64
2022/01/09 02:11:32;;;;;;;5.90;2.67;;;;;;;4.92;90.95;98545.25;5093083;28;20036;-66
2022/01/09 02:13:59;;;;;;;9.85;3.63;;;;;;;4.88;90.86;98557.13;5075023;28;20509;-64
2022/01/09 02:16:26;;;;;;;6.85;2.70;;;;;;;4.84;91.37;98561.03;5091873;28;20484;-63
2022/01/09 02:18:53;;;;;;;6.93;2.50;;;;;;;4.76;91.39;98564.53;5093088;28;20036;-64
2022/01/09 02:21:22;;;;;;;5.45;2.33;;;;;;;4.73;91.72;98586.72;5091981;28;20067;-64
2022/01/09 02:23:49;;;;;;;5.18;2.22;;;;;;;4.75;91.10;98586.56;5091825;28;20056;-64
2022/01/09 02:26:17;;;;;;;3.58;1.92;;;;;;;4.75;90.73;98602.31;5080671;28;20511;-64
2022/01/09 02:28:45;;;;;;;6.93;2.28;;;;;;;4.71;91.59;98616.75;5072774;28;20044;-64
2022/01/09 02:31:13;;;;;;;5.50;2.38;;;;;;;4.58;91.07;98617.28;5087236;28;20503;-65
2022/01/09 02:33:40;;;;;;;5.03;2.10;;;;;;;4.58;91.15;98626.00;5092971;28;20043;-63
2022/01/09 02:36:07;;;;;;;8.48;2.20;;;;;;;4.53;90.23;98644.03;5083567;28;20390;-64
2022/01/09 02:38:33;;;;;;;6.40;1.92;;;;;;;4.44;90.69;98642.41;5071598;28;20048;-63
2022/01/09 02:41:03;;;;;;;9.23;1.98;;;;;;;4.45;90.97;98667.66;5070906;28;20049;-63
2022/01/09 02:43:30;;;;;;;7.18;1.80;;;;;;;4.41;90.53;98672.44;5071629;28;20102;-63
2022/01/09 02:46:14;;;;;;;12.18;1.90;;;;;;;4.40;90.20;98683.09;5071547;28;20504;-63
2022/01/09 02:48:41;;;;;;;6.75;1.60;;;;;;;4.33;90.50;98682.09;5071013;28;20040;-63
2022/01/09 02:51:14;;;;;;;9.90;1.90;;;;;;;4.30;90.28;98696.41;5074565;28;20102;-63
2022/01/09 02:53:45;;;;;;;11.82;2.35;;;;;;;4.30;91.26;98701.66;5072648;28;20049;-64
2022/01/09 02:56:12;;;;;;;16.63;2.42;;;;;;;4.37;90.90;98714.94;5073805;28;20128;-64
2022/01/09 02:58:38;;;;;;;15.18;2.70;;;;;;;4.25;91.44;98724.94;5090696;28;20047;-63
2022/01/09 03:01:07;;;;;;;14.40;2.40;;;;;;;4.42;91.09;98731.00;5084078;28;20498;-63
2022/01/09 03:03:34;;;;;;;19.42;2.85;;;;;;;4.45;91.09;98735.13;5072512;28;20501;-64
2022/01/09 03:06:02;;;;;;;20.30;2.90;;;;;;;4.39;91.56;98726.91;5070902;28;20558;-64
2022/01/09 03:08:29;;;;;;;23.85;3.67;;;;;;;4.42;91.18;98733.63;5077450;28;20044;-65
2022/01/09 03:10:56;;;;;;;23.02;2.75;;;;;;;4.53;91.52;98740.38;5071430;28;20139;-63
2022/01/09 03:13:23;;;;;;;20.95;3.30;;;;;;;4.44;91.04;98742.19;5072581;28;20045;-64
2022/01/09 03:15:50;;;;;;;23.98;2.60;;;;;;;4.46;91.48;98750.72;5075554;28;20141;-64
2022/01/09 03:18:16;;;;;;;32.38;3.42;;;;;;;4.62;91.37;98760.41;5054610;28;20052;-64
2022/01/09 03:20:43;;;;;;;19.88;3.17;;;;;;;4.68;91.40;98766.81;5052732;28;20165;-63
2022/01/09 03:23:10;;;;;;;20.85;3.33;;;;;;;4.68;91.46;98775.50;5070988;28;20041;-63
2022/01/09 03:25:37;;;;;;;26.92;3.88;;;;;;;4.68;91.24;98785.19;5038239;28;20098;-63
2022/01/09 03:28:04;;;;;;;31.88;3.65;;;;;;;4.88;89.63;98794.38;5073713;28;20045;-63
2022/01/09 03:30:31;;;;;;;31.08;3.60;;;;;;;4.79;90.15;98798.81;5072385;28;20170;-64
2022/01/09 03:32:58;;;;;;;24.52;3.22;;;;;;;4.77;90.42;98803.41;5072107;28;20489;-64
2022/01/09 03:35:26;;;;;;;30.08;3.90;;;;;;;4.82;90.69;98808.19;5070305;28;20136;-64
2022/01/09 03:37:53;;;;;;;25.83;3.47;;;;;;;4.76;90.90;98830.66;5071493;28;20635;-64
2022/01/09 03:40:25;;;;;;;30.13;3.80;;;;;;;4.82;89.65;98831.84;5079410;28;20058;-66
2022/01/09 03:42:55;;;;;;;14.95;2.95;;;;;;;4.76;90.15;98820.16;5092314;28;20105;-65
2022/01/09 03:45:24;;;;;;;24.17;3.72;;;;;;;4.75;89.72;98844.78;5076746;28;20040;-64
2022/01/09 03:47:51;;;;;;;30.33;4.05;;;;;;;4.81;89.65;98843.31;5071245;28;20044;-63
2022/01/09 03:50:18;;;;;;;28.45;3.53;;;;;;;4.89;89.47;98855.63;5075670;28;20560;-66
2022/01/09 03:52:48;;;;;;;25.08;3.53;;;;;;;4.78;90.23;98855.00;5078235;28;20036;-65
2022/01/09 03:55:17;;;;;;;22.02;3.05;;;;;;;4.73;90.63;98862.53;5053286;28;20036;-65
2022/01/09 03:57:45;;;;;;;26.70;3.88;;;;;;;4.76;89.72;98858.75;5074439;28;20041;-65
2022/01/09 04:00:15;;;;;;;19.02;3.10;;;;;;;4.65;90.09;98875.63;5075163;28;20451;-65
2022/01/09 04:02:45;;;;;;;25.35;3.10;;;;;;;4.67;89.95;98885.97;5074558;28;20127;-65
2022/01/09 04:05:12;;;;;;;13.45;2.60;;;;;;;4.55;90.35;98894.16;5075391;28;20033;-65
2022/01/09 04:07:38;;;;;;;17.77;2.33;;;;;;;4.59;91.14;98907.81;5074105;28;20389;-64
2022/01/09 04:10:06;;;;;;;13.27;2.25;;;;;;;4.50;90.46;98911.41;5075687;28;20396;-63
2022/01/09 04:12:37;;;;;;;21.45;3.03;;;;;;;4.54;91.17;98916.16;5091944;28;20044;-64
2022/01/09 04:15:07;;;;;;;18.30;2.83;;;;;;;4.50;91.05;98927.97;5057603;28;20032;-65
2022/01/09 04:17:48;;;;;;;22.20;3.05;;;;;;;4.52;91.96;98933.88;5074924;28;20049;-64
2022/01/09 04:20:15;;;;;;;20.00;3.97;;;;;;;4.56;92.06;98942.25;5074110;28;20127;-64
2022/01/09 04:22:41;;;;;;;25.95;4.75;;;;;;;4.66;91.91;98950.00;5068485;28;20071;-63
2022/01/09 04:25:08;;;;;;;24.63;4.60;;;;;;;4.75;91.73;98951.69;5074743;28;20053;-63
2022/01/09 04:27:36;;;;;;;30.00;5.22;;;;;;;4.83;92.08;98956.94;5074993;28;20505;-63
2022/01/09 04:30:04;;;;;;;30.45;6.70;;;;;;;4.75;92.27;98960.38;5074007;28;20040;-64
2022/01/09 04:32:31;;;;;;;36.15;6.25;;;;;;;4.87;92.90;98967.97;5075004;28;20041;-64
2022/01/09 04:34:58;;;;;;;34.67;6.88;;;;;;;4.90;93.54;98978.16;5055681;28;20513;-64
2022/01/09 04:37:25;;;;;;;33.63;6.35;;;;;;;5.06;91.64;98980.81;5074600;28;20051;-64
2022/01/09 04:39:53;;;;;;;40.58;6.80;;;;;;;5.06;91.53;98988.69;5074684;28;20048;-64
2022/01/09 04:42:24;;;;;;;37.95;7.05;;;;;;;5.04;91.10;98988.03;5073405;28;20489;-64
2022/01/09 04:44:54;;;;;;;44.25;7.32;;;;;;;5.05;90.89;99000.19;5074690;28;20028;-64
2022/01/09 04:47:20;;;;;;;51.00;7.45;;;;;;;4.99;91.68;99001.66;5074606;28;20040;-64
2022/01/09 04:49:49;;;;;;;32.00;6.45;;;;;;;5.11;89.93;99010.06;5074622;28;20045;-64
2022/01/09 04:52:20;;;;;;;37.85;5.65;;;;;;;5.08;89.80;99010.38;5056547;28;20048;-64
2022/01/09 04:54:47;;;;;;;34.67;5.30;;;;;;;5.09;89.86;99026.97;5074550;28;20069;-64
2022/01/09 04:57:13;;;;;;;46.38;5.50;;;;;;;5.04;89.61;99038.00;5074513;28;20098;-64
2022/01/09 04:59:40;;;;;;;38.33;6.00;;;;;;;5.07;90.11;99039.47;5073208;28;20491;-64
2022/01/09 05:02:08;;;;;;;35.45;6.03;;;;;;;5.05;89.20;99052.75;5074349;28;20048;-64
2022/01/09 05:04:34;;;;;;;29.67;5.00;;;;;;;5.04;88.40;99055.53;5074302;28;20493;-64
2022/01/09 05:07:01;;;;;;;35.78;6.35;;;;;;;4.97;88.26;99065.88;5085597;28;20056;-64
2022/01/09 05:09:28;;;;;;;28.38;5.75;;;;;;;4.97;88.31;99074.59;5079351;28;20036;-65
2022/01/09 05:11:56;;;;;;;35.22;5.75;;;;;;;4.90;88.55;99072.75;5075173;28;20563;-65
2022/01/09 05:14:23;;;;;;;31.25;6.05;;;;;;;4.90;88.82;99091.16;5077562;28;20059;-64
2022/01/09 05:16:50;;;;;;;33.60;6.15;;;;;;;4.96;88.67;99093.13;5072520;28;20041;-66
2022/01/09 05:19:19;;;;;;;29.13;5.88;;;;;;;4.89;88.38;99102.63;5073568;28;20044;-66
2022/01/09 05:21:48;;;;;;;30.95;5.22;;;;;;;4.91;87.96;99114.66;5074412;28;20040;-66
2022/01/09 05:24:16;;;;;;;31.88;4.88;;;;;;;4.81;87.15;99119.19;5073785;28;20043;-66
2022/01/09 05:26:43;;;;;;;29.98;5.25;;;;;;;4.92;87.01;99134.66;5080106;28;20546;-66
2022/01/09 05:29:10;;;;;;;25.20;5.03;;;;;;;4.88;87.15;99133.34;5094100;28;20048;-65
2022/01/09 05:31:37;;;;;;;30.75;5.07;;;;;;;4.83;87.76;99151.38;5094437;28;20036;-66
2022/01/09 05:34:04;;;;;;;25.25;4.00;;;;;;;4.76;87.14;99151.16;5094128;28;20047;-65
2022/01/09 05:36:31;;;;;;;20.92;4.85;;;;;;;4.80;87.09;99157.78;5080901;28;20033;-65
2022/01/09 05:38:58;;;;;;;35.08;5.50;;;;;;;4.74;87.47;99166.25;5092251;28;20047;-65
2022/01/09 05:41:26;;;;;;;22.98;4.97;;;;;;;4.83;86.26;99171.59;5094773;28;20052;-65
2022/01/09 05:43:52;;;;;;;26.42;5.00;;;;;;;4.81;86.49;99169.91;5094574;28;20052;-66
2022/01/09 05:46:21;;;;;;;27.63;5.43;;;;;;;4.83;86.81;99179.47;5075593;28;20055;-66
2022/01/09 05:48:48;;;;;;;33.65;5.75;;;;;;;4.74;86.71;99194.34;5092278;28;20043;-65
2022/01/09 05:51:14;;;;;;;26.08;4.90;;;;;;;4.78;87.13;99203.56;5093837;28;20036;-66
2022/01/09 05:53:41;;;;;;;21.50;3.53;;;;;;;4.73;85.99;99224.22;5092158;28;20401;-65
2022/01/09 05:56:08;;;;;;;28.38;4.80;;;;;;;4.74;86.83;99215.34;5091900;28;20070;-65
2022/01/09 05:58:35;;;;;;;23.13;4.50;;;;;;;4.71;86.17;99213.88;5072880;28;20068;-65
2022/01/09 06:01:03;;;;;;;24.08;4.28;;;;;;;4.72;86.05;99212.88;5073022;28;20106;-66
2022/01/09 06:03:30;;;;;;;27.23;3.88;;;;;;;4.69;86.42;99225.50;5077981;28;20052;-66
2022/01/09 06:05:57;;;;;;;19.40;3.50;;;;;;;4.66;86.04;99237.16;5073060;28;20041;-65
2022/01/09 06:08:25;;;;;;;33.13;5.63;;;;;;;4.68;85.04;99232.56;5071397;28;20047;-66
2022/01/09 06:10:52;;;;;;;20.92;4.15;;;;;;;4.68;84.55;99239.63;5075231;28;20040;-65
2022/01/09 06:13:19;;;;;;;19.40;2.97;;;;;;;4.64;84.78;99241.72;5073743;28;20037;-65
2022/01/09 06:15:45;;;;;;;20.02;3.25;;;;;;;4.68;85.54;99239.63;5085767;28;20037;-65
2022/01/09 06:18:12;;;;;;;16.27;3.92;;;;;;;4.59;84.65;99254.50;5072935;28;20128;-66
2022/01/09 06:20:40;;;;;;;22.27;3.40;;;;;;;4.66;84.32;99257.31;5071862;28;20386;-66
2022/01/09 06:23:07;;;;;;;26.80;3.72;;;;;;;4.68;84.76;99266.72;5072951;28;20048;-65
2022/01/09 06:25:33;;;;;;;22.85;3.47;;;;;;;4.66;84.55;99270.44;5072832;28;20037;-65
2022/01/09 06:28:00;;;;;;;26.55;3.90;;;;;;;4.60;84.25;99266.63;5076997;28;20040;-65
2022/01/09 06:30:27;;;;;;;22.70;3.30;;;;;;;4.63;84.47;99282.09;5073652;28;20471;-65
2022/01/09 06:32:54;;;;;;;24.88;3.40;;;;;;;4.63;83.63;99268.97;5072681;28;20048;-65
2022/01/09 06:35:20;;;;;;;18.70;3.30;;;;;;;4.61;82.89;99282.25;5071090;28;20036;-65
2022/01/09 06:37:48;;;;;;;20.45;3.13;;;;;;;4.60;83.78;99285.03;5072609;28;20127;-65
2022/01/09 06:40:16;;;;;;;28.08;3.97;;;;;;;4.57;83.40;99277.47;5072530;28;20053;-65
2022/01/09 06:42:42;;;;;;;18.58;3.08;;;;;;;4.67;83.69;99303.63;5071431;28;20043;-65
2022/01/09 06:45:09;;;;;;;20.45;3.25;;;;;;;4.64;83.55;99310.03;5071386;28;20037;-65
2022/01/09 06:47:39;;;;;;;20.00;3.15;;;;;;;4.59;82.85;99307.03;5071412;28;20055;-65
2022/01/09 06:50:10;;;;;;;15.52;2.55;;;;;;;4.63;83.18;99316.25;5072661;28;20400;-66
2022/01/09 06:52:37;;;;;;;17.38;3.33;;;;;;;4.58;83.28;99326.38;5071348;28;20630;-65
2022/01/09 06:55:04;;;;;;;23.42;3.15;;;;;;;4.58;83.14;99331.63;5072241;28;20036;-65
2022/01/09 06:57:31;;;;;;;18.05;3.47;;;;;;;4.53;82.89;99332.09;5091097;28;20044;-65
2022/01/09 06:59:58;;;;;;;18.70;3.15;;;;;;;4.52;83.02;99334.84;5075649;28;20041;-65
2022/01/09 07:02:25;;;;;;;30.48;4.03;;;;;;;4.52;82.94;99354.06;5070031;28;20405;-65
2022/01/09 07:04:59;;;;;;;18.75;3.78;;;;;;;4.57;83.48;99353.63;5079694;28;20047;-65
2022/01/09 07:07:25;;;;;;;20.40;3.28;;;;;;;4.46;83.92;99353.81;5073258;28;20073;-65
2022/01/09 07:09:52;;;;;;;20.30;3.38;;;;;;;4.49;84.46;99370.09;5077947;28;20075;-65
2022/01/09 07:12:20;;;;;;;21.20;3.90;;;;;;;4.52;84.74;99376.88;5074280;28;20048;-65
2022/01/09 07:14:47;;;;;;;27.15;5.18;;;;;;;4.46;85.24;99377.44;5064026;28;20380;-65
2022/01/09 07:17:13;;;;;;;19.65;3.72;;;;;;;4.51;85.28;99380.47;5072368;28;20045;-65
2022/01/09 07:19:40;;;;;;;27.38;5.25;;;;;;;4.48;84.76;99388.66;5091023;28;20051;-65
2022/01/09 07:22:07;;;;;;;18.85;3.70;;;;;;;4.52;85.20;99405.78;5091113;28;20044;-65
2022/01/09 07:24:34;;;;;;;18.95;3.53;;;;;;;4.38;84.83;99407.94;5094255;28;20437;-65
2022/01/09 07:27:01;;;;;;;18.95;4.63;;;;;;;4.44;85.79;99409.13;5096625;28;20055;-65
2022/01/09 07:29:28;;;;;;;18.67;4.65;;;;;;;4.42;85.66;99406.66;5096411;28;20048;-65
2022/01/09 07:31:54;;;;;;;26.13;4.78;;;;;;;4.53;85.24;99410.88;5090833;28;20040;-65
2022/01/09 07:34:21;;;;;;;19.92;3.60;;;;;;;4.52;84.92;99419.72;5094729;28;20055;-65
2022/01/09 07:36:48;;;;;;;29.17;3.80;;;;;;;4.49;84.88;99421.81;5090727;28;20055;-65
2022/01/09 07:39:14;;;;;;;25.05;3.83;;;;;;;4.49;84.25;99427.06;5083742;28;20420;-65
2022/01/09 07:41:42;;;;;;;20.83;3.78;;;;;;;4.47;84.72;99429.84;5077638;28;20439;-65
2022/01/09 07:44:09;;;;;;;10.25;2.60;;;;;;;4.49;83.88;99435.75;5094606;28;20040;-65
2022/01/09 07:46:36;;;;;;;33.78;3.35;;;;;;;4.47;83.26;99431.63;5095783;28;20032;-65
2022/01/09 07:49:05;;;;;;;22.77;3.78;;;;;;;4.45;84.44;99446.72;5094733;28;20036;-65
2022/01/09 07:51:31;;;;;;;23.98;3.90;;;;;;;4.39;83.76;99448.13;5077847;28;20123;-65
2022/01/09 07:54:09;;;;;;;24.88;4.35;;;;;;;4.51;83.71;99451.38;5089261;28;20044;-65
2022/01/09 07:56:35;;;;;;;22.42;3.30;;;;;;;4.47;83.92;99460.53;5076459;28;20431;-66
2022/01/09 07:59:02;;;;;;;20.55;4.30;;;;;;;4.46;82.81;99454.47;5075624;28;20400;-65
2022/01/09 08:01:29;;;;;;;18.80;3.95;;;;;;;4.47;83.08;99473.66;5043466;28;20044;-65
2022/01/09 08:03:55;;;;;;;20.80;4.78;;;;;;;4.47;83.61;99482.34;5074062;28;20123;-65
2022/01/09 08:06:22;;;;;;;19.95;4.38;;;;;;;4.46;82.79;99467.59;5027608;28;20485;-65
2022/01/09 08:08:49;;;;;;;26.08;3.72;;;;;;;4.51;82.29;99486.38;5087521;28;20040;-65
2022/01/09 08:11:17;;;;;;;14.18;2.60;;;;;;;4.54;82.46;99493.13;5057748;28;20402;-65
2022/01/09 08:13:44;;;;;;;24.55;3.92;;;;;;;4.42;82.43;99498.56;5074272;28;20127;-65
2022/01/09 08:16:11;;;;;;;19.33;3.03;;;;;;;4.39;82.81;99501.47;5073853;28;20037;-65
2022/01/09 08:18:38;;;;;;;14.73;3.20;;;;;;;4.53;82.19;99509.84;5073907;28;20071;-65
2022/01/09 08:21:05;;;;;;;17.08;2.83;;;;;;;4.51;82.24;99509.16;5074951;28;20489;-65
2022/01/09 08:23:31;;;;;;;19.15;3.38;;;;;;;4.54;82.25;99511.50;5057591;28;20036;-65
2022/01/09 08:25:58;;;;;;;14.90;2.75;;;;;;;4.55;82.03;99508.75;5073908;28;20086;-65
2022/01/09 08:28:25;;;;;;;26.45;3.88;;;;;;;4.52;81.55;99523.97;5073642;28;20396;-65
2022/01/09 08:30:52;;;;;;;23.35;3.00;;;;;;;4.50;81.69;99525.91;5073602;28;20052;-65
2022/01/09 08:33:24;;;;;;;18.90;3.28;;;;;;;4.52;81.47;99524.78;5057313;28;20050;-65
2022/01/09 08:35:51;;;;;;;9.63;2.42;;;;;;;4.47;81.92;99516.50;5073500;28;20067;-65
2022/01/09 08:38:20;;;;;;;21.40;3.70;;;;;;;4.51;81.62;99535.41;5073857;28;20088;-65
2022/01/09 08:40:47;;;;;;;17.27;2.90;;;;;;;4.49;82.12;99532.94;5074342;28;20050;-65
2022/01/09 08:43:14;;;;;;;16.00;3.33;;;;;;;4.49;82.65;99534.75;5040657;28;20094;-65
2022/01/09 08:45:40;;;;;;;16.45;3.83;;;;;;;4.59;82.75;99540.78;5094321;28;20168;-65
2022/01/09 08:48:07;;;;;;;22.50;4.75;;;;;;;4.58;84.00;99541.75;5093712;28;20040;-65
2022/01/09 08:50:36;;;;;;;24.23;3.40;;;;;;;4.72;83.36;99546.53;5094797;28;20040;-65
2022/01/09 08:53:03;;;;;;;20.65;3.70;;;;;;;4.69;83.56;99552.06;5074879;28;20044;-65
2022/01/09 08:55:30;;;;;;;18.02;3.67;;;;;;;4.67;82.84;99540.88;5074426;28;20386;-65
2022/01/09 08:57:57;;;;;;;23.00;4.15;;;;;;;4.70;83.50;99558.16;5072320;28;20044;-65
2022/01/09 09:00:25;;;;;;;23.60;3.72;;;;;;;4.51;83.18;99556.44;5073234;28;20047;-66
2022/01/09 09:02:52;;;;;;;18.20;3.22;;;;;;;4.52;83.34;99561.53;5073156;28;20051;-65
2022/01/09 09:05:20;;;;;;;19.13;3.40;;;;;;;4.64;83.68;99569.25;5074533;28;20574;-65
2022/01/09 09:07:47;;;;;;;24.95;3.90;;;;;;;4.54;83.54;99570.09;5072564;28;20045;-65
2022/01/09 09:10:14;;;;;;;17.48;3.53;;;;;;;4.76;83.30;99576.78;5073068;28;20040;-65
2022/01/09 09:12:41;;;;;;;15.70;3.30;;;;;;;4.55;82.38;99566.53;5023386;28;20041;-65
2022/01/09 09:15:08;;;;;;;19.80;3.38;;;;;;;4.50;83.34;99571.38;5072778;28;20059;-65
2022/01/09 09:17:35;;;;;;;16.15;3.50;;;;;;;4.52;84.12;99577.31;5074156;28;20516;-65
2022/01/09 09:20:03;;;;;;;23.10;4.25;;;;;;;4.56;82.73;99578.66;5073905;28;20044;-65
2022/01/09 09:22:30;;;;;;;20.35;3.17;;;;;;;4.65;82.08;99591.94;5074014;28;20044;-65
2022/01/09 09:24:57;;;;;;;20.13;3.95;;;;;;;4.78;82.21;99590.63;5073133;28;20055;-65
2022/01/09 09:27:30;;;;;;;15.77;3.72;;;;;;;4.76;82.03;99602.25;5073296;28;20048;-65
2022/01/09 09:30:01;;;;;;;17.02;2.83;;;;;;;4.69;82.47;99604.63;5073517;28;20051;-65
2022/01/09 09:32:28;;;;;;;19.13;3.13;;;;;;;4.61;83.21;99615.03;5061431;28;20557;-64
2022/01/09 09:34:55;;;;;;;22.35;3.08;;;;;;;4.70;82.59;99608.91;5071758;28;20051;-65
2022/01/09 09:37:23;;;;;;;12.05;2.78;;;;;;;4.66;82.93;99625.94;5086189;28;20074;-65
2022/01/09 09:39:51;;;;;;;23.63;3.90;;;;;;;4.60;82.78;99621.22;5070675;28;20032;-65
2022/01/09 09:42:18;;;;;;;16.55;3.47;;;;;;;4.60;82.92;99629.97;5072375;28;20040;-65
2022/01/09 09:44:45;;;;;;;17.70;3.97;;;;;;;4.61;83.47;99639.47;5072915;28;20071;-65
2022/01/09 09:47:12;;;;;;;14.88;3.83;;;;;;;4.56;82.51;99633.81;5071432;28;20068;-65
2022/01/09 09:49:38;;;;;;;23.98;4.10;;;;;;;4.57;82.74;99639.94;5092122;28;20044;-65
2022/01/09 09:52:07;;;;;;;10.70;3.53;;;;;;;4.56;82.85;99636.44;5077381;28;20048;-65
2022/01/09 09:54:33;;;;;;;17.85;3.92;;;;;;;4.55;83.01;99632.19;5071904;28;20052;-65
2022/01/09 09:57:00;;;;;;;18.50;4.25;;;;;;;4.73;82.80;99650.66;5073043;28;20061;-65
2022/01/09 09:59:35;;;;;;;20.65;3.97;;;;;;;4.65;82.76;99650.53;5072917;28;20114;-65
2022/01/09 10:02:08;;;;;;;20.70;4.13;;;;;;;4.70;82.28;99647.50;5073134;28;20079;-65
2022/01/09 10:04:35;;;;;;;20.40;4.63;;;;;;;4.70;81.77;99648.31;5071964;28;20051;-65
2022/01/09 10:07:02;;;;;;;15.88;3.85;;;;;;;4.74;81.38;99662.81;5073191;28;20045;-65
2022/01/09 10:09:29;;;;;;;14.00;3.72;;;;;;;4.75;81.92;99668.91;5081717;28;20051;-65
2022/01/09 10:12:00;;;;;;;19.70;4.00;;;;;;;4.63;82.47;99672.69;5055353;28;20048;-65
2022/01/09 10:14:29;;;;;;;21.27;5.13;;;;;;;4.58;83.95;99676.56;5081159;28;20496;-65
2022/01/09 10:17:19;;;;;;;19.40;5.13;;;;;;;4.61;84.68;99681.50;5055201;28;20040;-65
2022/01/09 10:20:10;;;;;;;23.90;4.20;;;;;;;4.57;83.93;99674.91;5072872;28;20072;-65
2022/01/09 10:22:43;;;;;;;20.73;4.20;;;;;;;4.55;83.44;99679.47;5068969;28;20062;-65
2022/01/09 10:25:17;;;;;;;15.65;4.80;;;;;;;4.58;83.61;99684.44;5091531;28;20515;-65
2022/01/09 10:27:44;;;;;;;18.48;3.83;;;;;;;4.59;82.99;99688.72;5071298;28;20497;-65
2022/01/09 10:30:12;;;;;;;14.18;4.07;;;;;;;4.53;83.26;99697.16;5054779;28;20048;-65
2022/01/09 10:32:39;;;;;;;16.63;4.40;;;;;;;4.49;84.17;99708.91;5062141;28;20519;-65
2022/01/09 10:35:12;;;;;;;23.40;4.88;;;;;;;4.48;83.01;99711.69;5069796;28;20412;-65
2022/01/09 10:37:42;;;;;;;16.80;4.43;;;;;;;4.70;83.41;99716.63;5059906;28;20395;-65
2022/01/09 10:40:12;;;;;;;19.98;4.70;;;;;;;4.64;84.21;99714.56;5072207;28;20041;-65
2022/01/09 10:42:39;;;;;;;14.05;4.53;;;;;;;4.85;82.69;99713.56;5071481;28;20068;-65
2022/01/09 10:45:25;;;;;;;17.83;4.88;;;;;;;4.86;82.79;99718.66;5072653;28;20447;-65
2022/01/09 10:48:00;;;;;;;16.70;3.88;;;;;;;4.74;82.54;99718.00;5072625;28;20075;-65
2022/01/09 10:50:31;;;;;;;14.82;3.70;;;;;;;4.83;82.41;99721.56;5080883;28;20139;-65
2022/01/09 10:58:45;;;;;;;15.63;4.57;;;;;;;5.04;80.65;99731.06;5085657;27;20390;-65
2022/01/09 11:01:21;;;;;;;16.65;4.72;;;;;;;5.06;80.87;99731.75;5072731;28;20101;-65
2022/01/09 11:03:54;;;;;;;11.90;3.60;;;;;;;5.22;80.53;99734.63;5076727;28;20051;-65
2022/01/09 11:06:24;;;;;;;12.63;3.42;;;;;;;5.19;80.41;99732.28;5067202;28;20079;-66
2022/01/09 11:08:52;;;;;;;24.35;3.88;;;;;;;5.17;80.03;99744.75;5052197;28;20049;-65
2022/01/09 11:11:39;;;;;;;10.68;3.50;;;;;;;5.01;80.78;99742.69;5064675;28;20516;-65
2022/01/09 11:14:12;;;;;;;17.13;4.57;;;;;;;4.91;82.73;99737.47;5049772;28;20052;-65
2022/01/09 11:16:42;;;;;;;17.75;4.20;;;;;;;4.85;83.40;99745.09;5059792;28;20533;-66
2022/01/09 11:19:14;;;;;;;9.48;2.90;;;;;;;5.02;81.84;99754.88;5068511;28;20123;-66
2022/01/09 11:21:44;;;;;;;17.15;4.38;;;;;;;5.01;82.74;99755.84;5062709;28;20123;-65
2022/01/09 11:30:14;;;;;;;16.15;4.10;;;;;;;5.07;81.44;99759.69;5050192;28;20343;-65
2022/01/09 11:33:20;;;;;;;19.40;5.20;;;;;;;5.72;80.45;99744.75;5036297;28;20494;-64
2022/01/09 11:36:18;;;;;;;23.58;4.63;;;;;;;7.59;74.89;99753.50;5030065;28;20072;-64
2022/01/09 11:39:02;;;;;;;16.50;4.35;;;;;;;8.41;71.72;99758.97;5046712;28;20437;-65
2022/01/09 11:41:31;;;;;;;15.63;3.58;;;;;;;7.54;71.89;99763.69;5026922;28;20056;-64
2022/01/09 11:44:02;;;;;;;22.40;4.70;;;;;;;7.15;73.61;99766.81;5012056;28;20053;-66
2022/01/09 11:46:32;;;;;;;14.20;4.15;;;;;;;6.85;75.35;99774.16;5028652;28;20125;-65
2022/01/09 11:49:03;;;;;;;14.75;4.05;;;;;;;6.88;74.29;99765.97;5041107;28;20120;-65
2022/01/09 11:51:33;;;;;;;;;;;;;;;6.67;75.53;99778.63;5032994;28;20528;-65
2022/01/09 11:59:26;;;;;;;16.02;4.63;;;;;;;6.31;77.17;99778.63;5089863;28;20125;-66